sensor_id;sensor_type;location;lat;lon;timestamp;P1;durP1;ratioP1;P2;durP2;ratioP2
7406;SDS011;3745;56.964;24.128;2023-04-15T00:00:30;4.40;;;4.07;;
7406;SDS011;3745;56.964;24.128;2023-04-15T00:02:55;5.00;;;4.25;;
7406;SDS011;3745;56.964;24.128;2023-04-15T00:05:21;5.60;;;4.28;;
7406;SDS011;3745;56.964;24.128;2023-04-15T00:07:46;6.38;;;4.38;;
7406;SDS011;3745;56.964;24.128;2023-04-15T00:10:12;5.25;;;4.22;;
7406;SDS011;3745;56.964;24.128;2023-04-15T00:12:38;4.45;;;4.05;;
7406;SDS011;3745;56.964;24.128;2023-04-15T00:15:05;4.88;;;4.43;;
7406;SDS011;3745;56.964;24.128;2023-04-15T00:17:33;5.47;;;4.70;;
7406;SDS011;3745;56.964;24.128;2023-04-15T00:19:59;5.03;;;4.07;;
7406;SDS011;3745;56.964;24.128;2023-04-15T00:22:25;5.18;;;4.60;;
7406;SDS011;3745;56.964;24.128;2023-04-15T00:24:54;4.72;;;4.32;;
7406;SDS011;3745;56.964;24.128;2023-04-15T00:27:19;9.55;;;4.70;;
7406;SDS011;3745;56.964;24.128;2023-04-15T00:29:45;5.57;;;4.45;;
7406;SDS011;3745;56.964;24.128;2023-04-15T00:32:11;6.75;;;4.35;;
7406;SDS011;3745;56.964;24.128;2023-04-15T00:34:36;6.07;;;4.43;;
7406;SDS011;3745;56.964;24.128;2023-04-15T00:37:02;6.40;;;4.20;;
7406;SDS011;3745;56.964;24.128;2023-04-15T00:39:27;5.57;;;4.10;;
7406;SDS011;3745;56.964;24.128;2023-04-15T00:41:53;7.32;;;4.82;;
7406;SDS011;3745;56.964;24.128;2023-04-15T00:44:19;4.88;;;4.38;;
7406;SDS011;3745;56.964;24.128;2023-04-15T00:46:45;7.03;;;4.80;;
7406;SDS011;3745;56.964;24.128;2023-04-15T00:49:11;5.20;;;4.07;;
7406;SDS011;3745;56.964;24.128;2023-04-15T00:51:38;7.55;;;4.43;;
7406;SDS011;3745;56.964;24.128;2023-04-15T00:54:03;4.72;;;4.28;;
7406;SDS011;3745;56.964;24.128;2023-04-15T00:56:33;5.38;;;4.65;;
7406;SDS011;3745;56.964;24.128;2023-04-15T00:59:02;4.82;;;4.38;;
7406;SDS011;3745;56.964;24.128;2023-04-15T01:01:28;8.85;;;4.90;;
7406;SDS011;3745;56.964;24.128;2023-04-15T01:03:57;8.10;;;4.40;;
7406;SDS011;3745;56.964;24.128;2023-04-15T01:06:23;7.22;;;4.80;;
7406;SDS011;3745;56.964;24.128;2023-04-15T01:08:48;5.85;;;4.13;;
7406;SDS011;3745;56.964;24.128;2023-04-15T01:11:15;5.45;;;4.88;;
7406;SDS011;3745;56.964;24.128;2023-04-15T01:13:41;6.78;;;5.15;;
7406;SDS011;3745;56.964;24.128;2023-04-15T01:16:07;5.15;;;4.68;;
7406;SDS011;3745;56.964;24.128;2023-04-15T01:18:33;6.30;;;4.78;;
7406;SDS011;3745;56.964;24.128;2023-04-15T01:21:02;6.53;;;5.30;;
7406;SDS011;3745;56.964;24.128;2023-04-15T01:23:29;5.13;;;4.40;;
7406;SDS011;3745;56.964;24.128;2023-04-15T01:25:54;4.35;;;4.05;;
7406;SDS011;3745;56.964;24.128;2023-04-15T01:28:21;9.40;;;4.53;;
7406;SDS011;3745;56.964;24.128;2023-04-15T01:30:47;7.97;;;4.57;;
7406;SDS011;3745;56.964;24.128;2023-04-15T01:33:13;6.18;;;4.50;;
7406;SDS011;3745;56.964;24.128;2023-04-15T01:35:38;6.90;;;5.13;;
7406;SDS011;3745;56.964;24.128;2023-04-15T01:38:06;8.70;;;5.10;;
7406;SDS011;3745;56.964;24.128;2023-04-15T01:40:33;6.88;;;4.72;;
7406;SDS011;3745;56.964;24.128;2023-04-15T01:43:00;7.95;;;5.03;;
7406;SDS011;3745;56.964;24.128;2023-04-15T01:45:26;6.38;;;4.47;;
7406;SDS011;3745;56.964;24.128;2023-04-15T01:47:52;5.07;;;4.10;;
7406;SDS011;3745;56.964;24.128;2023-04-15T01:50:18;8.70;;;4.53;;
7406;SDS011;3745;56.964;24.128;2023-04-15T01:52:45;6.53;;;4.72;;
7406;SDS011;3745;56.964;24.128;2023-04-15T01:55:13;6.15;;;4.38;;
7406;SDS011;3745;56.964;24.128;2023-04-15T01:57:39;5.40;;;4.43;;
7406;SDS011;3745;56.964;24.128;2023-04-15T02:00:05;4.90;;;4.50;;
7406;SDS011;3745;56.964;24.128;2023-04-15T02:02:34;5.25;;;4.20;;
7406;SDS011;3745;56.964;24.128;2023-04-15T02:04:59;5.32;;;4.65;;
7406;SDS011;3745;56.964;24.128;2023-04-15T02:07:25;6.72;;;4.80;;
7406;SDS011;3745;56.964;24.128;2023-04-15T02:09:53;4.40;;;4.07;;
7406;SDS011;3745;56.964;24.128;2023-04-15T02:12:18;5.60;;;4.97;;
7406;SDS011;3745;56.964;24.128;2023-04-15T02:14:44;8.93;;;4.55;;
7406;SDS011;3745;56.964;24.128;2023-04-15T02:17:09;5.35;;;4.45;;
7406;SDS011;3745;56.964;24.128;2023-04-15T02:19:35;5.07;;;4.30;;
7406;SDS011;3745;56.964;24.128;2023-04-15T02:22:01;6.28;;;4.50;;
7406;SDS011;3745;56.964;24.128;2023-04-15T02:24:29;6.65;;;4.43;;
7406;SDS011;3745;56.964;24.128;2023-04-15T02:26:55;6.88;;;4.60;;
7406;SDS011;3745;56.964;24.128;2023-04-15T02:29:21;6.80;;;4.68;;
7406;SDS011;3745;56.964;24.128;2023-04-15T02:31:47;5.00;;;4.32;;
7406;SDS011;3745;56.964;24.128;2023-04-15T02:34:13;5.40;;;4.90;;
7406;SDS011;3745;56.964;24.128;2023-04-15T02:36:39;7.68;;;4.63;;
7406;SDS011;3745;56.964;24.128;2023-04-15T02:39:05;4.53;;;4.13;;
7406;SDS011;3745;56.964;24.128;2023-04-15T02:41:31;5.90;;;4.60;;
7406;SDS011;3745;56.964;24.128;2023-04-15T02:43:56;4.68;;;4.15;;
7406;SDS011;3745;56.964;24.128;2023-04-15T02:46:22;9.63;;;5.00;;
7406;SDS011;3745;56.964;24.128;2023-04-15T02:48:48;6.68;;;4.90;;
7406;SDS011;3745;56.964;24.128;2023-04-15T02:51:23;5.18;;;4.57;;
7406;SDS011;3745;56.964;24.128;2023-04-15T02:53:49;5.30;;;4.55;;
7406;SDS011;3745;56.964;24.128;2023-04-15T02:56:14;8.02;;;4.28;;
7406;SDS011;3745;56.964;24.128;2023-04-15T02:58:42;8.25;;;4.50;;
7406;SDS011;3745;56.964;24.128;2023-04-15T03:01:08;5.50;;;4.47;;
7406;SDS011;3745;56.964;24.128;2023-04-15T03:03:34;6.53;;;4.63;;
7406;SDS011;3745;56.964;24.128;2023-04-15T03:06:00;6.72;;;4.47;;
7406;SDS011;3745;56.964;24.128;2023-04-15T03:08:25;6.60;;;4.70;;
7406;SDS011;3745;56.964;24.128;2023-04-15T03:10:51;6.05;;;4.70;;
7406;SDS011;3745;56.964;24.128;2023-04-15T03:13:18;5.15;;;4.65;;
7406;SDS011;3745;56.964;24.128;2023-04-15T03:15:46;6.55;;;4.60;;
7406;SDS011;3745;56.964;24.128;2023-04-15T03:18:12;5.47;;;4.90;;
7406;SDS011;3745;56.964;24.128;2023-04-15T03:20:38;7.18;;;5.38;;
7406;SDS011;3745;56.964;24.128;2023-04-15T03:23:03;8.02;;;5.30;;
7406;SDS011;3745;56.964;24.128;2023-04-15T03:25:29;5.38;;;4.85;;
7406;SDS011;3745;56.964;24.128;2023-04-15T03:27:55;5.80;;;4.95;;
7406;SDS011;3745;56.964;24.128;2023-04-15T03:30:21;5.55;;;5.00;;
7406;SDS011;3745;56.964;24.128;2023-04-15T03:32:46;7.53;;;5.05;;
7406;SDS011;3745;56.964;24.128;2023-04-15T03:35:12;5.72;;;5.13;;
7406;SDS011;3745;56.964;24.128;2023-04-15T03:37:37;6.35;;;4.57;;
7406;SDS011;3745;56.964;24.128;2023-04-15T03:40:03;6.45;;;5.03;;
7406;SDS011;3745;56.964;24.128;2023-04-15T03:42:29;7.88;;;4.95;;
7406;SDS011;3745;56.964;24.128;2023-04-15T03:44:55;5.10;;;4.53;;
7406;SDS011;3745;56.964;24.128;2023-04-15T03:47:21;6.13;;;5.03;;
7406;SDS011;3745;56.964;24.128;2023-04-15T03:49:47;6.18;;;5.00;;
7406;SDS011;3745;56.964;24.128;2023-04-15T03:52:12;5.10;;;4.57;;
7406;SDS011;3745;56.964;24.128;2023-04-15T03:54:38;9.52;;;4.63;;
7406;SDS011;3745;56.964;24.128;2023-04-15T03:57:03;4.97;;;4.18;;
7406;SDS011;3745;56.964;24.128;2023-04-15T03:59:29;8.55;;;4.78;;
7406;SDS011;3745;56.964;24.128;2023-04-15T04:01:54;5.55;;;4.63;;
7406;SDS011;3745;56.964;24.128;2023-04-15T04:04:20;5.75;;;4.50;;
7406;SDS011;3745;56.964;24.128;2023-04-15T04:06:46;6.20;;;4.97;;
7406;SDS011;3745;56.964;24.128;2023-04-15T04:09:11;6.90;;;4.90;;
7406;SDS011;3745;56.964;24.128;2023-04-15T04:11:37;5.13;;;4.63;;
7406;SDS011;3745;56.964;24.128;2023-04-15T04:14:02;6.28;;;5.00;;
7406;SDS011;3745;56.964;24.128;2023-04-15T04:16:28;6.55;;;4.97;;
7406;SDS011;3745;56.964;24.128;2023-04-15T04:18:53;5.70;;;5.15;;
7406;SDS011;3745;56.964;24.128;2023-04-15T04:21:19;6.55;;;4.60;;
7406;SDS011;3745;56.964;24.128;2023-04-15T04:23:45;5.68;;;4.90;;
7406;SDS011;3745;56.964;24.128;2023-04-15T04:26:11;6.50;;;4.78;;
7406;SDS011;3745;56.964;24.128;2023-04-15T04:28:37;5.80;;;4.68;;
7406;SDS011;3745;56.964;24.128;2023-04-15T04:31:05;6.93;;;5.22;;
7406;SDS011;3745;56.964;24.128;2023-04-15T04:33:31;5.93;;;4.45;;
7406;SDS011;3745;56.964;24.128;2023-04-15T04:35:57;6.30;;;4.90;;
7406;SDS011;3745;56.964;24.128;2023-04-15T04:38:23;6.75;;;4.80;;
7406;SDS011;3745;56.964;24.128;2023-04-15T04:40:49;5.57;;;5.00;;
7406;SDS011;3745;56.964;24.128;2023-04-15T04:43:14;8.75;;;4.60;;
7406;SDS011;3745;56.964;24.128;2023-04-15T04:45:40;6.40;;;4.90;;
7406;SDS011;3745;56.964;24.128;2023-04-15T04:48:06;7.55;;;4.82;;
7406;SDS011;3745;56.964;24.128;2023-04-15T04:50:33;6.50;;;4.82;;
7406;SDS011;3745;56.964;24.128;2023-04-15T04:52:59;5.47;;;4.80;;
7406;SDS011;3745;56.964;24.128;2023-04-15T04:55:25;9.10;;;5.45;;
7406;SDS011;3745;56.964;24.128;2023-04-15T04:57:51;6.68;;;5.03;;
7406;SDS011;3745;56.964;24.128;2023-04-15T05:00:17;6.65;;;5.07;;
7406;SDS011;3745;56.964;24.128;2023-04-15T05:02:43;5.35;;;4.85;;
7406;SDS011;3745;56.964;24.128;2023-04-15T05:05:09;5.30;;;4.80;;
7406;SDS011;3745;56.964;24.128;2023-04-15T05:07:38;6.47;;;4.50;;
7406;SDS011;3745;56.964;24.128;2023-04-15T05:10:04;7.00;;;4.60;;
7406;SDS011;3745;56.964;24.128;2023-04-15T05:12:30;6.90;;;5.10;;
7406;SDS011;3745;56.964;24.128;2023-04-15T05:14:56;5.53;;;4.97;;
7406;SDS011;3745;56.964;24.128;2023-04-15T05:17:22;6.60;;;5.10;;
7406;SDS011;3745;56.964;24.128;2023-04-15T05:19:47;9.02;;;5.20;;
7406;SDS011;3745;56.964;24.128;2023-04-15T05:22:13;6.03;;;4.95;;
7406;SDS011;3745;56.964;24.128;2023-04-15T05:24:38;8.20;;;5.03;;
7406;SDS011;3745;56.964;24.128;2023-04-15T05:27:04;10.40;;;5.05;;
7406;SDS011;3745;56.964;24.128;2023-04-15T05:29:30;7.35;;;5.05;;
7406;SDS011;3745;56.964;24.128;2023-04-15T05:31:56;14.18;;;4.78;;
7406;SDS011;3745;56.964;24.128;2023-04-15T05:34:21;6.72;;;4.57;;
7406;SDS011;3745;56.964;24.128;2023-04-15T05:36:47;7.45;;;4.95;;
7406;SDS011;3745;56.964;24.128;2023-04-15T05:39:12;5.22;;;4.70;;
7406;SDS011;3745;56.964;24.128;2023-04-15T05:41:38;9.02;;;4.50;;
7406;SDS011;3745;56.964;24.128;2023-04-15T05:44:04;8.20;;;4.95;;
7406;SDS011;3745;56.964;24.128;2023-04-15T05:46:30;5.22;;;4.50;;
7406;SDS011;3745;56.964;24.128;2023-04-15T05:48:55;8.35;;;4.65;;
7406;SDS011;3745;56.964;24.128;2023-04-15T05:51:21;7.45;;;5.10;;
7406;SDS011;3745;56.964;24.128;2023-04-15T05:53:47;5.53;;;4.85;;
7406;SDS011;3745;56.964;24.128;2023-04-15T05:56:12;7.78;;;4.93;;
7406;SDS011;3745;56.964;24.128;2023-04-15T05:58:38;7.50;;;4.93;;
7406;SDS011;3745;56.964;24.128;2023-04-15T06:01:03;4.78;;;4.38;;
7406;SDS011;3745;56.964;24.128;2023-04-15T06:03:29;9.02;;;5.32;;
7406;SDS011;3745;56.964;24.128;2023-04-15T06:05:55;5.80;;;4.88;;
7406;SDS011;3745;56.964;24.128;2023-04-15T06:08:21;6.50;;;4.60;;
7406;SDS011;3745;56.964;24.128;2023-04-15T06:10:46;5.30;;;4.80;;
7406;SDS011;3745;56.964;24.128;2023-04-15T06:13:12;4.50;;;4.15;;
7406;SDS011;3745;56.964;24.128;2023-04-15T06:15:38;8.77;;;5.07;;
7406;SDS011;3745;56.964;24.128;2023-04-15T06:18:03;4.53;;;4.13;;
7406;SDS011;3745;56.964;24.128;2023-04-15T06:20:29;4.95;;;4.38;;
7406;SDS011;3745;56.964;24.128;2023-04-15T06:22:54;8.80;;;4.93;;
7406;SDS011;3745;56.964;24.128;2023-04-15T06:25:21;9.73;;;5.18;;
7406;SDS011;3745;56.964;24.128;2023-04-15T06:27:47;6.50;;;4.38;;
7406;SDS011;3745;56.964;24.128;2023-04-15T06:30:12;7.15;;;4.70;;
7406;SDS011;3745;56.964;24.128;2023-04-15T06:32:38;8.77;;;5.05;;
7406;SDS011;3745;56.964;24.128;2023-04-15T06:35:04;5.00;;;4.53;;
7406;SDS011;3745;56.964;24.128;2023-04-15T06:37:30;8.02;;;5.20;;
7406;SDS011;3745;56.964;24.128;2023-04-15T06:39:56;9.60;;;4.80;;
7406;SDS011;3745;56.964;24.128;2023-04-15T06:42:22;5.45;;;4.80;;
7406;SDS011;3745;56.964;24.128;2023-04-15T06:44:48;8.05;;;4.90;;
7406;SDS011;3745;56.964;24.128;2023-04-15T06:47:14;12.75;;;4.85;;
7406;SDS011;3745;56.964;24.128;2023-04-15T06:49:40;9.60;;;5.28;;
7406;SDS011;3745;56.964;24.128;2023-04-15T06:52:07;5.68;;;5.15;;
7406;SDS011;3745;56.964;24.128;2023-04-15T06:54:34;5.50;;;5.00;;
7406;SDS011;3745;56.964;24.128;2023-04-15T06:56:59;6.60;;;5.10;;
7406;SDS011;3745;56.964;24.128;2023-04-15T06:59:25;6.97;;;5.10;;
7406;SDS011;3745;56.964;24.128;2023-04-15T07:01:51;8.63;;;5.00;;
7406;SDS011;3745;56.964;24.128;2023-04-15T07:04:17;6.25;;;5.03;;
7406;SDS011;3745;56.964;24.128;2023-04-15T07:06:42;8.77;;;5.00;;
7406;SDS011;3745;56.964;24.128;2023-04-15T07:09:08;7.93;;;5.45;;
7406;SDS011;3745;56.964;24.128;2023-04-15T07:11:34;6.72;;;4.90;;
7406;SDS011;3745;56.964;24.128;2023-04-15T07:14:00;7.20;;;5.38;;
7406;SDS011;3745;56.964;24.128;2023-04-15T07:16:26;6.68;;;5.40;;
7406;SDS011;3745;56.964;24.128;2023-04-15T07:18:51;7.13;;;5.45;;
7406;SDS011;3745;56.964;24.128;2023-04-15T07:21:17;10.60;;;5.78;;
7406;SDS011;3745;56.964;24.128;2023-04-15T07:23:43;7.70;;;5.28;;
7406;SDS011;3745;56.964;24.128;2023-04-15T07:26:08;8.85;;;6.18;;
7406;SDS011;3745;56.964;24.128;2023-04-15T07:28:35;8.88;;;5.90;;
7406;SDS011;3745;56.964;24.128;2023-04-15T07:31:00;6.22;;;5.53;;
7406;SDS011;3745;56.964;24.128;2023-04-15T07:33:26;9.40;;;5.80;;
7406;SDS011;3745;56.964;24.128;2023-04-15T07:35:52;10.48;;;5.97;;
7406;SDS011;3745;56.964;24.128;2023-04-15T07:38:17;6.53;;;5.93;;
7406;SDS011;3745;56.964;24.128;2023-04-15T07:40:43;12.15;;;6.32;;
7406;SDS011;3745;56.964;24.128;2023-04-15T07:43:08;7.72;;;5.93;;
7406;SDS011;3745;56.964;24.128;2023-04-15T07:45:34;11.23;;;6.40;;
7406;SDS011;3745;56.964;24.128;2023-04-15T07:48:00;10.00;;;6.63;;
7406;SDS011;3745;56.964;24.128;2023-04-15T07:50:27;9.98;;;6.10;;
7406;SDS011;3745;56.964;24.128;2023-04-15T07:52:53;7.40;;;5.88;;
7406;SDS011;3745;56.964;24.128;2023-04-15T07:55:18;9.00;;;6.20;;
7406;SDS011;3745;56.964;24.128;2023-04-15T07:57:47;9.70;;;6.30;;
7406;SDS011;3745;56.964;24.128;2023-04-15T08:00:13;10.93;;;6.82;;
7406;SDS011;3745;56.964;24.128;2023-04-15T08:02:39;12.90;;;6.68;;
7406;SDS011;3745;56.964;24.128;2023-04-15T08:05:05;12.70;;;6.85;;
7406;SDS011;3745;56.964;24.128;2023-04-15T08:07:31;10.73;;;6.88;;
7406;SDS011;3745;56.964;24.128;2023-04-15T08:09:57;11.57;;;7.22;;
7406;SDS011;3745;56.964;24.128;2023-04-15T08:12:22;11.07;;;7.32;;
7406;SDS011;3745;56.964;24.128;2023-04-15T08:14:49;10.82;;;7.13;;
7406;SDS011;3745;56.964;24.128;2023-04-15T08:17:15;11.07;;;6.68;;
7406;SDS011;3745;56.964;24.128;2023-04-15T08:19:41;10.00;;;6.55;;
7406;SDS011;3745;56.964;24.128;2023-04-15T08:22:09;10.02;;;6.85;;
7406;SDS011;3745;56.964;24.128;2023-04-15T08:24:36;10.02;;;6.68;;
7406;SDS011;3745;56.964;24.128;2023-04-15T08:27:02;9.98;;;6.80;;
7406;SDS011;3745;56.964;24.128;2023-04-15T08:29:29;8.55;;;6.57;;
7406;SDS011;3745;56.964;24.128;2023-04-15T08:31:56;7.88;;;6.10;;
7406;SDS011;3745;56.964;24.128;2023-04-15T08:34:22;7.35;;;6.50;;
7406;SDS011;3745;56.964;24.128;2023-04-15T08:36:48;8.10;;;6.55;;
7406;SDS011;3745;56.964;24.128;2023-04-15T08:39:13;8.25;;;6.18;;
7406;SDS011;3745;56.964;24.128;2023-04-15T08:41:40;10.73;;;6.82;;
7406;SDS011;3745;56.964;24.128;2023-04-15T08:44:13;12.30;;;6.75;;
7406;SDS011;3745;56.964;24.128;2023-04-15T08:46:40;11.27;;;7.10;;
7406;SDS011;3745;56.964;24.128;2023-04-15T08:49:08;10.05;;;6.95;;
7406;SDS011;3745;56.964;24.128;2023-04-15T08:51:37;11.10;;;6.93;;
7406;SDS011;3745;56.964;24.128;2023-04-15T08:54:04;20.45;;;7.15;;
7406;SDS011;3745;56.964;24.128;2023-04-15T08:56:31;9.05;;;7.10;;
7406;SDS011;3745;56.964;24.128;2023-04-15T08:58:57;9.23;;;6.78;;
7406;SDS011;3745;56.964;24.128;2023-04-15T09:01:24;9.98;;;7.07;;
7406;SDS011;3745;56.964;24.128;2023-04-15T09:03:51;12.55;;;7.75;;
7406;SDS011;3745;56.964;24.128;2023-04-15T09:06:19;13.93;;;7.38;;
7406;SDS011;3745;56.964;24.128;2023-04-15T09:08:46;11.82;;;7.25;;
7406;SDS011;3745;56.964;24.128;2023-04-15T09:11:12;15.48;;;7.85;;
7406;SDS011;3745;56.964;24.128;2023-04-15T09:13:38;11.32;;;7.75;;
7406;SDS011;3745;56.964;24.128;2023-04-15T09:16:04;10.02;;;7.28;;
7406;SDS011;3745;56.964;24.128;2023-04-15T09:18:34;12.68;;;7.50;;
7406;SDS011;3745;56.964;24.128;2023-04-15T09:23:35;10.23;;;7.40;;
7406;SDS011;3745;56.964;24.128;2023-04-15T09:26:02;13.18;;;8.00;;
7406;SDS011;3745;56.964;24.128;2023-04-15T09:28:29;9.57;;;7.47;;
7406;SDS011;3745;56.964;24.128;2023-04-15T09:30:58;9.40;;;7.22;;
7406;SDS011;3745;56.964;24.128;2023-04-15T09:33:25;9.00;;;6.90;;
7406;SDS011;3745;56.964;24.128;2023-04-15T09:35:59;11.23;;;7.68;;
7406;SDS011;3745;56.964;24.128;2023-04-15T09:38:30;9.90;;;7.68;;
7406;SDS011;3745;56.964;24.128;2023-04-15T09:40:57;14.00;;;7.55;;
7406;SDS011;3745;56.964;24.128;2023-04-15T09:43:36;9.48;;;7.50;;
7406;SDS011;3745;56.964;24.128;2023-04-15T09:46:03;11.20;;;7.35;;
7406;SDS011;3745;56.964;24.128;2023-04-15T09:48:30;14.65;;;8.25;;
7406;SDS011;3745;56.964;24.128;2023-04-15T09:50:59;11.73;;;7.90;;
7406;SDS011;3745;56.964;24.128;2023-04-15T09:53:26;10.60;;;7.97;;
7406;SDS011;3745;56.964;24.128;2023-04-15T09:55:56;15.63;;;7.78;;
7406;SDS011;3745;56.964;24.128;2023-04-15T09:58:23;17.23;;;7.43;;
7406;SDS011;3745;56.964;24.128;2023-04-15T10:00:51;12.40;;;7.63;;
7406;SDS011;3745;56.964;24.128;2023-04-15T10:03:18;13.25;;;8.63;;
7406;SDS011;3745;56.964;24.128;2023-04-15T10:05:49;12.85;;;8.18;;
7406;SDS011;3745;56.964;24.128;2023-04-15T10:08:17;11.13;;;8.00;;
7406;SDS011;3745;56.964;24.128;2023-04-15T10:10:44;9.35;;;7.97;;
7406;SDS011;3745;56.964;24.128;2023-04-15T10:13:12;8.10;;;7.30;;
7406;SDS011;3745;56.964;24.128;2023-04-15T10:15:42;13.73;;;8.60;;
7406;SDS011;3745;56.964;24.128;2023-04-15T10:18:10;14.88;;;8.55;;
7406;SDS011;3745;56.964;24.128;2023-04-15T10:20:39;16.17;;;8.85;;
7406;SDS011;3745;56.964;24.128;2023-04-15T10:23:06;11.60;;;8.80;;
7406;SDS011;3745;56.964;24.128;2023-04-15T10:25:33;12.82;;;8.38;;
7406;SDS011;3745;56.964;24.128;2023-04-15T10:27:59;12.75;;;8.73;;
7406;SDS011;3745;56.964;24.128;2023-04-15T10:30:25;15.38;;;8.50;;
7406;SDS011;3745;56.964;24.128;2023-04-15T10:32:51;15.15;;;8.75;;
7406;SDS011;3745;56.964;24.128;2023-04-15T10:35:17;19.00;;;8.68;;
7406;SDS011;3745;56.964;24.128;2023-04-15T10:37:45;12.07;;;9.00;;
7406;SDS011;3745;56.964;24.128;2023-04-15T10:40:24;12.43;;;8.02;;
7406;SDS011;3745;56.964;24.128;2023-04-15T10:42:54;19.02;;;8.68;;
7406;SDS011;3745;56.964;24.128;2023-04-15T10:45:21;12.68;;;7.68;;
7406;SDS011;3745;56.964;24.128;2023-04-15T10:47:55;12.38;;;8.32;;
7406;SDS011;3745;56.964;24.128;2023-04-15T10:50:24;12.95;;;8.45;;
7406;SDS011;3745;56.964;24.128;2023-04-15T10:52:50;11.75;;;8.27;;
7406;SDS011;3745;56.964;24.128;2023-04-15T10:55:20;17.00;;;8.15;;
7406;SDS011;3745;56.964;24.128;2023-04-15T10:57:52;9.20;;;8.18;;
7406;SDS011;3745;56.964;24.128;2023-04-15T11:00:21;11.57;;;7.97;;
7406;SDS011;3745;56.964;24.128;2023-04-15T11:02:57;11.98;;;8.07;;
7406;SDS011;3745;56.964;24.128;2023-04-15T11:08:16;11.68;;;8.48;;
7406;SDS011;3745;56.964;24.128;2023-04-15T11:15:48;12.27;;;8.30;;
7406;SDS011;3745;56.964;24.128;2023-04-15T11:18:21;13.10;;;8.52;;
7406;SDS011;3745;56.964;24.128;2023-04-15T11:20:52;11.85;;;7.40;;
7406;SDS011;3745;56.964;24.128;2023-04-15T11:23:28;12.23;;;8.23;;
7406;SDS011;3745;56.964;24.128;2023-04-15T11:25:59;11.65;;;8.52;;
7406;SDS011;3745;56.964;24.128;2023-04-15T11:28:27;9.93;;;8.38;;
7406;SDS011;3745;56.964;24.128;2023-04-15T11:30:54;10.35;;;8.07;;
7406;SDS011;3745;56.964;24.128;2023-04-15T11:33:21;13.90;;;8.45;;
7406;SDS011;3745;56.964;24.128;2023-04-15T11:35:48;9.15;;;8.25;;
7406;SDS011;3745;56.964;24.128;2023-04-15T11:38:19;10.25;;;8.27;;
7406;SDS011;3745;56.964;24.128;2023-04-15T11:40:44;14.68;;;8.27;;
7406;SDS011;3745;56.964;24.128;2023-04-15T11:43:12;14.85;;;8.80;;
7406;SDS011;3745;56.964;24.128;2023-04-15T11:45:47;17.25;;;8.40;;
7406;SDS011;3745;56.964;24.128;2023-04-15T11:48:17;11.77;;;7.22;;
7406;SDS011;3745;56.964;24.128;2023-04-15T11:50:44;11.45;;;8.30;;
7406;SDS011;3745;56.964;24.128;2023-04-15T11:53:10;12.52;;;8.52;;
7406;SDS011;3745;56.964;24.128;2023-04-15T11:55:44;11.65;;;8.73;;
7406;SDS011;3745;56.964;24.128;2023-04-15T11:58:18;12.57;;;8.30;;
7406;SDS011;3745;56.964;24.128;2023-04-15T12:00:47;10.38;;;8.32;;
7406;SDS011;3745;56.964;24.128;2023-04-15T12:11:17;11.13;;;7.75;;
7406;SDS011;3745;56.964;24.128;2023-04-15T12:13:55;8.55;;;7.47;;
7406;SDS011;3745;56.964;24.128;2023-04-15T12:16:28;9.93;;;7.45;;
7406;SDS011;3745;56.964;24.128;2023-04-15T12:18:55;8.68;;;7.25;;
7406;SDS011;3745;56.964;24.128;2023-04-15T12:21:22;10.70;;;7.68;;
7406;SDS011;3745;56.964;24.128;2023-04-15T12:23:53;11.05;;;7.70;;
7406;SDS011;3745;56.964;24.128;2023-04-15T12:26:27;14.65;;;7.13;;
7406;SDS011;3745;56.964;24.128;2023-04-15T12:29:04;9.60;;;7.90;;
7406;SDS011;3745;56.964;24.128;2023-04-15T12:31:31;15.10;;;7.22;;
7406;SDS011;3745;56.964;24.128;2023-04-15T12:33:59;17.35;;;7.80;;
7406;SDS011;3745;56.964;24.128;2023-04-15T12:36:26;10.95;;;8.07;;
7406;SDS011;3745;56.964;24.128;2023-04-15T12:38:53;10.05;;;8.20;;
7406;SDS011;3745;56.964;24.128;2023-04-15T12:41:19;10.50;;;7.57;;
7406;SDS011;3745;56.964;24.128;2023-04-15T12:43:46;7.63;;;6.93;;
7406;SDS011;3745;56.964;24.128;2023-04-15T12:46:12;8.13;;;7.25;;
7406;SDS011;3745;56.964;24.128;2023-04-15T12:48:38;10.32;;;7.63;;
7406;SDS011;3745;56.964;24.128;2023-04-15T12:51:04;12.10;;;7.25;;
7406;SDS011;3745;56.964;24.128;2023-04-15T12:53:30;10.77;;;7.15;;
7406;SDS011;3745;56.964;24.128;2023-04-15T12:55:56;11.52;;;7.93;;
7406;SDS011;3745;56.964;24.128;2023-04-15T12:58:22;17.02;;;8.60;;
7406;SDS011;3745;56.964;24.128;2023-04-15T13:00:47;14.93;;;9.18;;
7406;SDS011;3745;56.964;24.128;2023-04-15T13:03:16;10.15;;;8.13;;
7406;SDS011;3745;56.964;24.128;2023-04-15T13:05:41;13.70;;;7.30;;
7406;SDS011;3745;56.964;24.128;2023-04-15T13:08:07;9.82;;;7.57;;
7406;SDS011;3745;56.964;24.128;2023-04-15T13:10:34;9.27;;;7.30;;
7406;SDS011;3745;56.964;24.128;2023-04-15T13:13:03;10.27;;;7.55;;
7406;SDS011;3745;56.964;24.128;2023-04-15T13:15:29;12.02;;;7.60;;
7406;SDS011;3745;56.964;24.128;2023-04-15T13:17:55;9.73;;;7.20;;
7406;SDS011;3745;56.964;24.128;2023-04-15T13:20:20;14.73;;;7.38;;
7406;SDS011;3745;56.964;24.128;2023-04-15T13:22:46;7.80;;;7.07;;
7406;SDS011;3745;56.964;24.128;2023-04-15T13:25:11;14.43;;;7.55;;
7406;SDS011;3745;56.964;24.128;2023-04-15T13:27:37;11.90;;;9.15;;
7406;SDS011;3745;56.964;24.128;2023-04-15T13:30:03;19.63;;;12.02;;
7406;SDS011;3745;56.964;24.128;2023-04-15T13:32:29;17.13;;;12.55;;
7406;SDS011;3745;56.964;24.128;2023-04-15T13:34:55;18.02;;;12.07;;
7406;SDS011;3745;56.964;24.128;2023-04-15T13:37:25;12.90;;;10.13;;
7406;SDS011;3745;56.964;24.128;2023-04-15T13:39:54;12.57;;;8.65;;
7406;SDS011;3745;56.964;24.128;2023-04-15T13:42:21;10.25;;;7.65;;
7406;SDS011;3745;56.964;24.128;2023-04-15T13:44:48;11.27;;;7.47;;
7406;SDS011;3745;56.964;24.128;2023-04-15T13:47:18;15.73;;;10.05;;
7406;SDS011;3745;56.964;24.128;2023-04-15T13:49:44;13.73;;;10.20;;
7406;SDS011;3745;56.964;24.128;2023-04-15T13:52:10;14.88;;;10.02;;
7406;SDS011;3745;56.964;24.128;2023-04-15T13:54:36;17.80;;;10.98;;
7406;SDS011;3745;56.964;24.128;2023-04-15T13:57:02;13.50;;;9.05;;
7406;SDS011;3745;56.964;24.128;2023-04-15T13:59:29;13.38;;;8.10;;
7406;SDS011;3745;56.964;24.128;2023-04-15T14:01:54;12.50;;;7.70;;
7406;SDS011;3745;56.964;24.128;2023-04-15T14:04:20;10.35;;;7.07;;
7406;SDS011;3745;56.964;24.128;2023-04-15T14:06:45;8.98;;;7.50;;
7406;SDS011;3745;56.964;24.128;2023-04-15T14:09:11;9.02;;;7.65;;
7406;SDS011;3745;56.964;24.128;2023-04-15T14:11:37;8.65;;;7.35;;
7406;SDS011;3745;56.964;24.128;2023-04-15T14:14:03;11.05;;;7.65;;
7406;SDS011;3745;56.964;24.128;2023-04-15T14:16:31;14.38;;;7.38;;
7406;SDS011;3745;56.964;24.128;2023-04-15T14:18:58;8.40;;;7.47;;
7406;SDS011;3745;56.964;24.128;2023-04-15T14:21:24;12.23;;;9.05;;
7406;SDS011;3745;56.964;24.128;2023-04-15T14:23:52;15.10;;;8.57;;
7406;SDS011;3745;56.964;24.128;2023-04-15T14:26:18;15.43;;;9.00;;
7406;SDS011;3745;56.964;24.128;2023-04-15T14:28:44;13.95;;;9.18;;
7406;SDS011;3745;56.964;24.128;2023-04-15T14:31:10;11.23;;;8.35;;
7406;SDS011;3745;56.964;24.128;2023-04-15T14:33:35;11.27;;;8.90;;
7406;SDS011;3745;56.964;24.128;2023-04-15T14:36:01;13.18;;;9.18;;
7406;SDS011;3745;56.964;24.128;2023-04-15T14:38:27;11.90;;;8.48;;
7406;SDS011;3745;56.964;24.128;2023-04-15T14:40:53;15.10;;;8.40;;
7406;SDS011;3745;56.964;24.128;2023-04-15T14:43:19;11.18;;;8.25;;
7406;SDS011;3745;56.964;24.128;2023-04-15T14:45:45;13.82;;;8.55;;
7406;SDS011;3745;56.964;24.128;2023-04-15T14:48:10;15.75;;;8.15;;
7406;SDS011;3745;56.964;24.128;2023-04-15T14:50:36;19.33;;;8.82;;
7406;SDS011;3745;56.964;24.128;2023-04-15T14:53:03;11.40;;;8.30;;
7406;SDS011;3745;56.964;24.128;2023-04-15T14:55:28;15.15;;;8.15;;
7406;SDS011;3745;56.964;24.128;2023-04-15T14:57:54;9.90;;;7.43;;
7406;SDS011;3745;56.964;24.128;2023-04-15T15:00:20;14.40;;;8.60;;
7406;SDS011;3745;56.964;24.128;2023-04-15T15:02:45;13.40;;;8.13;;
7406;SDS011;3745;56.964;24.128;2023-04-15T15:05:11;11.13;;;8.73;;
7406;SDS011;3745;56.964;24.128;2023-04-15T15:07:37;9.60;;;8.02;;
7406;SDS011;3745;56.964;24.128;2023-04-15T15:10:05;9.82;;;7.97;;